createdAt,value
2023-05-12T00:02:24.650Z,100860.03
2023-05-12T00:04:54.074Z,100863.41
2023-05-12T00:07:22.090Z,100869.44
2023-05-12T00:09:50.115Z,100869.31
2023-05-12T00:12:18.313Z,100859.69
2023-05-12T00:14:46.237Z,100867.91
2023-05-12T00:17:14.290Z,100867.81
2023-05-12T00:19:44.395Z,100867.28
2023-05-12T00:22:12.535Z,100863.66
2023-05-12T00:24:40.553Z,100855.81
2023-05-12T00:27:09.033Z,100862.19
2023-05-12T00:29:37.271Z,100864.69
2023-05-12T00:32:05.750Z,100856.56
2023-05-12T00:34:34.302Z,100862.44
2023-05-12T00:37:02.491Z,100873.12
2023-05-12T00:39:30.420Z,100861.25
2023-05-12T00:42:00.253Z,100873.28
2023-05-12T00:44:28.137Z,100878.56
2023-05-12T00:46:56.513Z,100869.09
2023-05-12T00:49:26.963Z,100873.47
2023-05-12T00:51:56.212Z,100854.69
2023-05-12T00:54:25.584Z,100875.34
2023-05-12T00:56:53.632Z,100866.56
2023-05-12T00:59:22.250Z,100876.94
2023-05-12T01:01:51.061Z,100875.31
2023-05-12T01:04:19.177Z,100867.59
2023-05-12T01:06:58.669Z,100869.31
2023-05-12T01:09:27.326Z,100870.16
2023-05-12T01:11:56.178Z,100876.12
2023-05-12T01:14:24.138Z,100878.75
2023-05-12T01:16:55.303Z,100877.75
2023-05-12T01:19:41.799Z,100884.69
2023-05-12T01:22:11.611Z,100882.19
2023-05-12T01:24:50.215Z,100890.50
2023-05-12T01:27:20.884Z,100891.81
2023-05-12T01:29:49.504Z,100890.78
2023-05-12T01:32:19.189Z,100888.78
2023-05-12T01:34:47.221Z,100881.84
2023-05-12T01:37:15.463Z,100884.44
2023-05-12T01:39:44.010Z,100891.09
2023-05-12T01:42:13.492Z,100892.91
2023-05-12T01:44:41.568Z,100897.41
2023-05-12T01:47:11.609Z,100895.69
2023-05-12T01:49:39.950Z,100892.41
2023-05-12T01:52:08.398Z,100884.94
2023-05-12T01:54:36.821Z,100895.41
2023-05-12T01:57:05.860Z,100885.13
2023-05-12T01:59:34.984Z,100896.34
2023-05-12T02:02:04.645Z,100873.69
2023-05-12T02:04:33.061Z,100898.56
2023-05-12T02:07:02.278Z,100895.34
2023-05-12T02:09:30.509Z,100892.41
2023-05-12T02:11:59.334Z,100896.31
2023-05-12T02:14:27.549Z,100894.75
2023-05-12T02:16:56.670Z,100894.28
2023-05-12T02:19:25.695Z,100897.91
2023-05-12T02:21:58.644Z,100896.50
2023-05-12T02:24:27.237Z,100901.31
2023-05-12T02:26:55.218Z,100888.94
2023-05-12T02:29:23.460Z,100889.31
2023-05-12T02:31:52.117Z,100882.94
2023-05-12T02:34:20.872Z,100884.84
2023-05-12T02:36:48.681Z,100895.94
2023-05-12T02:39:18.107Z,100882.28
2023-05-12T02:41:46.692Z,100881.22
2023-05-12T02:44:16.932Z,100891.75
2023-05-12T02:46:45.391Z,100881.28
2023-05-12T02:49:13.963Z,100889.72
2023-05-12T02:51:42.099Z,100897.19
2023-05-12T02:54:10.120Z,100895.72
2023-05-12T02:56:38.489Z,100894.25
2023-05-12T02:59:06.501Z,100892.50
2023-05-12T03:01:34.796Z,100897.25
2023-05-12T03:04:03.225Z,100890.13
2023-05-12T03:06:31.300Z,100898.97
2023-05-12T03:09:00.213Z,100898.34
2023-05-12T03:11:28.602Z,100894.19
2023-05-12T03:13:56.604Z,100892.91
2023-05-12T03:16:24.695Z,100886.84
2023-05-12T03:18:53.132Z,100886.03
2023-05-12T03:21:21.120Z,100885.16
2023-05-12T03:23:49.196Z,100887.97
2023-05-12T03:26:17.542Z,100863.56
2023-05-12T03:28:45.571Z,100884.31
2023-05-12T03:31:13.634Z,100884.28
2023-05-12T03:33:42.058Z,100879.00
2023-05-12T03:36:10.644Z,100888.56
2023-05-12T03:38:38.662Z,100883.06
2023-05-12T03:41:07.647Z,100887.66
2023-05-12T03:43:36.361Z,100883.63
2023-05-12T03:46:04.761Z,100876.94
2023-05-12T03:48:33.218Z,100872.78
2023-05-12T03:51:01.218Z,100879.06
2023-05-12T03:53:29.351Z,100874.31
2023-05-12T03:55:58.159Z,100880.31
2023-05-12T03:58:27.103Z,100875.53
2023-05-12T04:00:57.492Z,100871.50
2023-05-12T04:03:26.318Z,100867.47
2023-05-12T04:06:04.691Z,100868.06
2023-05-12T04:08:33.469Z,100869.16
2023-05-12T04:11:02.701Z,100855.22
2023-05-12T04:13:34.316Z,100871.69
2023-05-12T04:16:02.769Z,100863.09
2023-05-12T04:18:30.881Z,100852.78
2023-05-12T04:20:58.815Z,100856.22
2023-05-12T04:23:27.509Z,100853.19
2023-05-12T04:25:55.628Z,100859.19
2023-05-12T04:28:23.707Z,100858.22
2023-05-12T04:30:52.098Z,100852.94
2023-05-12T04:33:22.345Z,100852.28
2023-05-12T04:35:50.323Z,100853.53
2023-05-12T04:38:18.555Z,100853.19
2023-05-12T04:40:46.593Z,100849.84
2023-05-12T04:45:46.380Z,100854.06
2023-05-12T04:48:14.436Z,100854.44
2023-05-12T04:50:42.904Z,100855.88
2023-05-12T04:53:11.779Z,100856.75
2023-05-12T04:55:39.930Z,100830.19
2023-05-12T04:58:07.963Z,100845.66
2023-05-12T05:00:36.609Z,100847.84
2023-05-12T05:03:04.781Z,100842.94
2023-05-12T05:05:33.936Z,100843.78
2023-05-12T05:08:06.826Z,100842.78
2023-05-12T05:10:35.789Z,100840.94
2023-05-12T05:13:04.129Z,100838.19
2023-05-12T05:15:32.359Z,100841.88
2023-05-12T05:18:01.903Z,100842.53
2023-05-12T05:20:33.076Z,100841.97
2023-05-12T05:23:01.475Z,100838.38
2023-05-12T05:25:29.644Z,100848.03
2023-05-12T05:27:58.481Z,100836.78
2023-05-12T05:30:26.535Z,100837.88
2023-05-12T05:32:54.676Z,100835.94
2023-05-12T05:35:23.191Z,100835.59
2023-05-12T05:37:54.002Z,100828.38
2023-05-12T05:40:23.784Z,100819.50
2023-05-12T05:42:52.475Z,100818.06
2023-05-12T05:45:20.684Z,100810.06
2023-05-12T05:47:50.381Z,100808.19
2023-05-12T05:50:18.404Z,100818.06
2023-05-12T05:52:46.817Z,100811.56
2023-05-12T05:55:15.416Z,100811.22
2023-05-12T05:57:43.580Z,100807.81
2023-05-12T06:00:12.868Z,100811.22
2023-05-12T06:02:43.008Z,100816.81
2023-05-12T06:05:14.440Z,100810.66
2023-05-12T06:07:42.477Z,100806.97
2023-05-12T06:10:10.502Z,100811.41
2023-05-12T06:12:40.917Z,100806.56
2023-05-12T06:15:09.316Z,100795.47
2023-05-12T06:17:37.340Z,100798.81
2023-05-12T06:20:06.966Z,100798.38
2023-05-12T06:22:37.820Z,100795.91
2023-05-12T06:25:06.532Z,100798.41
2023-05-12T06:27:34.648Z,100802.09
2023-05-12T06:30:02.809Z,100791.53
2023-05-12T06:32:33.607Z,100799.44
2023-05-12T06:35:01.647Z,100798.81
2023-05-12T06:37:31.195Z,100801.72
2023-05-12T06:39:59.442Z,100795.50
2023-05-12T06:42:27.572Z,100807.06
2023-05-12T06:44:56.795Z,100790.31
2023-05-12T06:47:25.214Z,100797.88
2023-05-12T06:49:53.289Z,100781.84
2023-05-12T06:52:24.208Z,100787.88
2023-05-12T06:54:52.718Z,100796.41
2023-05-12T06:57:20.608Z,100800.91
2023-05-12T06:59:48.887Z,100785.06
2023-05-12T07:02:17.465Z,100778.94
2023-05-12T07:04:45.462Z,100789.37
2023-05-12T07:07:13.392Z,100795.31
2023-05-12T07:09:42.820Z,100789.63
2023-05-12T07:12:10.881Z,100790.13
2023-05-12T07:14:38.784Z,100796.03
2023-05-12T07:17:07.025Z,100780.75
2023-05-12T07:19:35.929Z,100779.59
2023-05-12T07:22:03.918Z,100784.03
2023-05-12T07:24:32.368Z,100777.06
2023-05-12T07:27:00.366Z,100779.16
2023-05-12T07:29:28.462Z,100783.84
2023-05-12T07:31:57.074Z,100777.62
2023-05-12T07:34:25.044Z,100774.75
2023-05-12T07:36:53.068Z,100769.84
2023-05-12T07:39:24.046Z,100776.47
2023-05-12T07:41:53.284Z,100788.75
2023-05-12T07:44:21.728Z,100777.62
2023-05-12T07:46:49.777Z,100777.44
2023-05-12T07:49:17.840Z,100776.13
2023-05-12T07:51:46.228Z,100765.00
2023-05-12T07:54:14.112Z,100757.59
2023-05-12T07:56:42.127Z,100762.41
2023-05-12T07:59:11.213Z,100775.87
2023-05-12T08:01:39.276Z,100767.94
2023-05-12T08:04:07.963Z,100773.72
2023-05-12T08:06:36.009Z,100751.22
2023-05-12T08:09:04.408Z,100763.38
2023-05-12T08:11:33.039Z,100767.84
2023-05-12T08:14:01.084Z,100771.31
2023-05-12T08:16:29.345Z,100773.41
2023-05-12T08:18:59.158Z,100770.13
2023-05-12T08:21:29.040Z,100768.87
2023-05-12T08:23:57.817Z,100755.53
2023-05-12T08:26:25.758Z,100761.94
2023-05-12T08:28:53.644Z,100761.63
2023-05-12T08:31:22.252Z,100762.31
2023-05-12T08:34:02.763Z,100748.31
2023-05-12T08:36:37.746Z,100746.72
2023-05-12T08:39:06.105Z,100753.78
2023-05-12T08:41:58.914Z,100754.00
2023-05-12T08:44:27.829Z,100754.63
2023-05-12T08:46:58.579Z,100749.66
2023-05-12T08:49:29.899Z,100746.44
2023-05-12T08:52:01.813Z,100748.13
2023-05-12T08:54:30.342Z,100744.88
2023-05-12T08:59:31.419Z,100741.81
2023-05-12T09:02:04.741Z,100740.78
2023-05-12T09:04:33.461Z,100719.16
2023-05-12T09:07:02.179Z,100725.78
2023-05-12T09:09:33.099Z,100731.22
2023-05-12T09:12:03.343Z,100723.53
2023-05-12T09:14:35.292Z,100727.47
2023-05-12T09:17:05.186Z,100734.91
2023-05-12T09:19:34.730Z,100729.22
2023-05-12T09:22:02.687Z,100735.94
2023-05-12T09:24:39.056Z,100724.16
2023-05-12T09:27:07.886Z,100716.69
2023-05-12T09:29:45.125Z,100711.47
2023-05-12T09:32:17.050Z,100715.19
2023-05-12T09:34:45.750Z,100717.47
2023-05-12T09:37:15.508Z,100706.31
2023-05-12T09:39:44.993Z,100720.19
2023-05-12T09:42:13.431Z,100721.53
2023-05-12T09:44:42.390Z,100721.09
2023-05-12T09:47:10.974Z,100725.31
2023-05-12T09:49:39.364Z,100707.63
2023-05-12T09:52:09.663Z,100698.66
2023-05-12T09:54:40.240Z,100704.63
2023-05-12T09:57:13.136Z,100711.25
2023-05-12T09:59:43.649Z,100707.50
2023-05-12T10:02:16.749Z,100710.38
2023-05-12T10:04:51.110Z,100679.16
2023-05-12T10:07:26.412Z,100679.19
2023-05-12T10:09:58.890Z,100686.50
2023-05-12T10:12:27.488Z,100693.03
2023-05-12T10:14:57.087Z,100685.75
2023-05-12T10:17:27.164Z,100691.75
2023-05-12T10:19:56.347Z,100689.06
2023-05-12T10:22:25.566Z,100690.28
2023-05-12T10:24:56.359Z,100692.81
2023-05-12T10:27:26.170Z,100685.00
2023-05-12T10:29:55.159Z,100684.53
2023-05-12T10:32:23.169Z,100683.09
2023-05-12T10:34:52.467Z,100677.59
2023-05-12T10:37:24.275Z,100684.56
2023-05-12T10:39:53.376Z,100672.84
2023-05-12T10:42:26.812Z,100677.44
2023-05-12T10:45:02.042Z,100697.69
2023-05-12T10:47:39.227Z,100682.19
2023-05-12T10:50:08.451Z,100694.00
2023-05-12T10:52:36.614Z,100672.28
2023-05-12T10:55:04.910Z,100684.00
2023-05-12T10:57:34.534Z,100684.50
2023-05-12T11:00:13.719Z,100680.75
2023-05-12T11:02:52.489Z,100679.34
2023-05-12T11:05:22.196Z,100679.66
2023-05-12T11:07:52.387Z,100670.38
2023-05-12T11:10:21.904Z,100677.59
2023-05-12T11:12:51.035Z,100663.78
2023-05-12T11:15:19.644Z,100660.16
2023-05-12T11:17:47.732Z,100654.00
2023-05-12T11:20:28.075Z,100672.44
2023-05-12T11:22:57.831Z,100675.16
2023-05-12T11:25:28.732Z,100663.97
2023-05-12T11:27:57.106Z,100676.16
2023-05-12T11:30:25.150Z,100674.94
2023-05-12T11:33:04.267Z,100678.47
2023-05-12T11:35:32.848Z,100672.75
2023-05-12T11:38:03.208Z,100678.47
2023-05-12T11:40:31.023Z,100682.03
2023-05-12T11:43:09.591Z,100680.25
2023-05-12T11:45:38.079Z,100681.59
2023-05-12T11:48:09.211Z,100676.94
2023-05-12T11:50:40.230Z,100677.94
2023-05-12T11:53:17.625Z,100669.94
2023-05-12T11:55:56.988Z,100664.13
2023-05-12T11:58:27.540Z,100671.69
2023-05-12T12:00:57.506Z,100666.03
2023-05-12T12:03:26.139Z,100656.44
2023-05-12T12:06:03.006Z,100648.38
2023-05-12T12:08:32.214Z,100647.94
2023-05-12T12:11:02.745Z,100649.94
2023-05-12T12:13:32.633Z,100655.34
2023-05-12T12:16:00.424Z,100649.06
2023-05-12T12:18:28.427Z,100651.53
2023-05-12T12:20:56.806Z,100656.53
2023-05-12T12:23:25.320Z,100658.69
2023-05-12T12:25:53.270Z,100657.47
2023-05-12T12:28:21.720Z,100660.66
2023-05-12T12:30:49.653Z,100659.88
2023-05-12T12:33:20.165Z,100652.25
2023-05-12T12:35:49.804Z,100642.50
2023-05-12T12:38:17.719Z,100649.12
2023-05-12T12:40:45.904Z,100650.22
2023-05-12T12:43:14.472Z,100648.75
2023-05-12T12:45:42.743Z,100649.56
2023-05-12T12:48:10.768Z,100654.59
2023-05-12T12:50:39.774Z,100659.16
2023-05-12T12:53:08.040Z,100657.50
2023-05-12T12:55:36.227Z,100660.00
2023-05-12T12:58:04.703Z,100646.94
2023-05-12T13:00:32.650Z,100663.66
2023-05-12T13:03:01.389Z,100648.62
2023-05-12T13:05:29.808Z,100649.63
2023-05-12T13:07:58.011Z,100648.97
2023-05-12T13:10:26.360Z,100648.34
2023-05-12T13:12:54.892Z,100639.34
2023-05-12T13:15:23.209Z,100640.59
2023-05-12T13:17:52.105Z,100638.28
2023-05-12T13:20:20.769Z,100633.31
2023-05-12T13:22:49.076Z,100639.94
2023-05-12T13:25:17.243Z,100636.38
2023-05-12T13:27:46.025Z,100631.75
2023-05-12T13:30:14.400Z,100628.25
2023-05-12T13:32:42.733Z,100626.13
2023-05-12T13:35:11.206Z,100624.38
2023-05-12T13:37:39.242Z,100625.06
2023-05-12T13:40:07.981Z,100627.47
2023-05-12T13:42:36.643Z,100618.38
2023-05-12T13:45:05.349Z,100613.72
2023-05-12T13:47:33.871Z,100609.09
2023-05-12T13:50:02.240Z,100616.91
2023-05-12T13:52:31.829Z,100608.00
2023-05-12T13:54:59.965Z,100601.47
2023-05-12T13:57:28.349Z,100577.22
2023-05-12T13:59:58.202Z,100600.66
2023-05-12T14:02:26.215Z,100598.69
2023-05-12T14:04:55.724Z,100603.25
2023-05-12T14:07:23.731Z,100592.53
2023-05-12T14:09:51.661Z,100598.03
2023-05-12T14:12:20.111Z,100591.22
2023-05-12T14:14:50.387Z,100603.56
2023-05-12T14:17:19.068Z,100598.66
2023-05-12T14:19:47.425Z,100595.53
2023-05-12T14:22:25.153Z,100603.59
2023-05-12T14:24:56.023Z,100608.66
2023-05-12T14:27:24.293Z,100603.06
2023-05-12T14:29:52.361Z,100597.16
2023-05-12T14:32:20.785Z,100595.69
2023-05-12T14:34:49.222Z,100586.94
2023-05-12T14:37:17.262Z,100596.37
2023-05-12T14:39:45.693Z,100592.78
2023-05-12T14:42:13.829Z,100585.72
2023-05-12T14:44:41.811Z,100595.44
2023-05-12T14:47:10.049Z,100581.53
2023-05-12T14:49:38.093Z,100588.72
2023-05-12T14:52:06.872Z,100588.91
2023-05-12T14:54:35.464Z,100587.50
2023-05-12T14:57:04.375Z,100577.28
2023-05-12T14:59:32.371Z,100570.28
2023-05-12T15:02:00.821Z,100571.44
2023-05-12T15:04:28.900Z,100575.03
2023-05-12T15:06:56.997Z,100562.44
2023-05-12T15:09:25.361Z,100573.88
2023-05-12T15:11:53.520Z,100552.78
2023-05-12T15:14:21.729Z,100571.38
2023-05-12T15:16:50.285Z,100581.22
2023-05-12T15:19:20.811Z,100570.75
2023-05-12T15:21:49.325Z,100579.34
2023-05-12T15:24:17.282Z,100580.16
2023-05-12T15:26:45.293Z,100576.47
2023-05-12T15:29:13.709Z,100566.25
2023-05-12T15:31:41.714Z,100581.19
2023-05-12T15:34:10.415Z,100571.44
2023-05-12T15:36:39.078Z,100575.84
2023-05-12T15:39:07.127Z,100581.78
2023-05-12T15:41:35.226Z,100558.63
2023-05-12T15:44:03.845Z,100578.06
2023-05-12T15:46:32.012Z,100572.16
2023-05-12T15:49:00.152Z,100575.44
2023-05-12T15:51:29.185Z,100576.84
2023-05-12T15:53:57.390Z,100567.06
2023-05-12T15:56:25.444Z,100564.00
2023-05-12T15:58:54.274Z,100570.91
2023-05-12T16:01:22.944Z,100573.25
2023-05-12T16:03:52.991Z,100569.56
2023-05-12T16:06:22.139Z,100576.41
2023-05-12T16:08:50.193Z,100572.06
2023-05-12T16:11:18.587Z,100582.50
2023-05-12T16:13:46.572Z,100575.34
2023-05-12T16:16:14.658Z,100579.19
2023-05-12T16:18:43.933Z,100572.53
2023-05-12T16:21:13.145Z,100572.41
2023-05-12T16:23:41.313Z,100574.59
2023-05-12T16:26:09.877Z,100570.22
2023-05-12T16:28:37.851Z,100575.75
2023-05-12T16:31:06.103Z,100581.41
2023-05-12T16:33:34.614Z,100570.00
2023-05-12T16:36:02.740Z,100577.56
2023-05-12T16:38:32.632Z,100583.53
2023-05-12T16:41:01.146Z,100580.56
2023-05-12T16:43:29.192Z,100575.22
2023-05-12T16:46:01.693Z,100589.37
2023-05-12T16:48:34.828Z,100582.69
2023-05-12T16:51:05.769Z,100566.56
2023-05-12T16:53:34.356Z,100585.44
2023-05-12T16:56:03.215Z,100580.78
2023-05-12T16:58:31.888Z,100578.25
2023-05-12T17:01:01.447Z,100587.69
2023-05-12T17:03:30.303Z,100583.94
2023-05-12T17:05:58.540Z,100588.00
2023-05-12T17:08:27.280Z,100583.13
2023-05-12T17:10:55.411Z,100587.69
2023-05-12T17:13:23.587Z,100592.44
2023-05-12T17:15:52.472Z,100592.63
2023-05-12T17:18:20.626Z,100601.59
2023-05-12T17:20:48.590Z,100589.13
2023-05-12T17:23:17.321Z,100593.94
2023-05-12T17:25:45.664Z,100599.41
2023-05-12T17:28:13.815Z,100603.44
2023-05-12T17:30:43.389Z,100603.53
2023-05-12T17:33:11.738Z,100596.53
2023-05-12T17:35:39.813Z,100606.47
2023-05-12T17:38:08.358Z,100604.31
2023-05-12T17:40:36.408Z,100604.22
2023-05-12T17:43:04.710Z,100598.44
2023-05-12T17:45:33.684Z,100617.47
2023-05-12T17:48:02.680Z,100619.25
2023-05-12T17:50:30.869Z,100618.81
2023-05-12T17:52:59.327Z,100615.97
2023-05-12T17:55:27.597Z,100620.91
2023-05-12T17:57:56.150Z,100621.22
2023-05-12T18:00:25.358Z,100616.34
2023-05-12T18:02:54.058Z,100616.31
2023-05-12T18:05:22.400Z,100624.44
2023-05-12T18:07:51.408Z,100613.84
2023-05-12T18:10:20.101Z,100615.94
2023-05-12T18:12:51.252Z,100621.94
2023-05-12T18:15:23.616Z,100622.06
2023-05-12T18:17:53.529Z,100622.31
2023-05-12T18:20:22.807Z,100622.09
2023-05-12T18:22:52.410Z,100622.84
2023-05-12T18:25:20.957Z,100620.53
2023-05-12T18:27:50.420Z,100622.31
2023-05-12T18:30:21.550Z,100623.06
2023-05-12T18:32:54.396Z,100632.50
2023-05-12T18:35:27.637Z,100634.28
2023-05-12T18:37:58.618Z,100630.06
2023-05-12T18:40:29.415Z,100635.56
2023-05-12T18:43:00.925Z,100632.59
2023-05-12T18:45:29.833Z,100632.28
2023-05-12T18:47:59.843Z,100639.38
2023-05-12T18:50:30.757Z,100634.56
2023-05-12T18:53:01.831Z,100634.75
2023-05-12T18:55:31.378Z,100628.06
2023-05-12T18:58:02.050Z,100635.00
2023-05-12T19:00:34.522Z,100627.63
2023-05-12T19:03:05.659Z,100626.69
2023-05-12T19:05:35.195Z,100634.22
2023-05-12T19:08:05.050Z,100633.75
2023-05-12T19:10:33.514Z,100634.72
2023-05-12T19:13:05.891Z,100625.12
2023-05-12T19:15:37.804Z,100631.13
2023-05-12T19:18:08.572Z,100636.16
2023-05-12T19:20:39.361Z,100632.41
2023-05-12T19:23:10.311Z,100648.38
2023-05-12T19:25:39.310Z,100631.13
2023-05-12T19:28:07.700Z,100646.47
2023-05-12T19:30:38.314Z,100637.09
2023-05-12T19:33:08.365Z,100640.03
2023-05-12T19:35:37.185Z,100643.22
2023-05-12T19:38:05.891Z,100642.12
2023-05-12T19:40:35.078Z,100628.28
2023-05-12T19:43:05.483Z,100630.47
2023-05-12T19:45:33.771Z,100640.78
2023-05-12T19:48:02.590Z,100639.44
2023-05-12T19:50:31.503Z,100632.69
2023-05-12T19:53:00.044Z,100634.75
2023-05-12T19:55:28.341Z,100635.03
2023-05-12T19:57:57.079Z,100624.66
2023-05-12T20:00:27.132Z,100635.19
2023-05-12T20:02:56.033Z,100643.22
2023-05-12T20:05:24.993Z,100642.31
2023-05-12T20:07:53.361Z,100638.62
2023-05-12T20:10:21.859Z,100619.97
2023-05-12T20:12:50.277Z,100637.00
2023-05-12T20:15:18.550Z,100635.75
2023-05-12T20:17:47.081Z,100634.31
2023-05-12T20:20:15.268Z,100635.88
2023-05-12T20:22:43.410Z,100635.38
2023-05-12T20:25:16.376Z,100638.38
2023-05-12T20:27:44.933Z,100643.66
2023-05-12T20:30:13.815Z,100644.91
2023-05-12T20:32:42.246Z,100636.28
2023-05-12T20:35:10.433Z,100640.25
2023-05-12T20:37:40.850Z,100643.25
2023-05-12T20:40:09.708Z,100637.03
2023-05-12T20:42:37.912Z,100641.28
2023-05-12T20:45:07.052Z,100640.75
2023-05-12T20:47:35.776Z,100640.75
2023-05-12T20:50:05.969Z,100647.41
2023-05-12T20:52:38.671Z,100652.09
2023-05-12T20:55:07.561Z,100654.22
2023-05-12T20:57:36.318Z,100652.22
2023-05-12T21:00:04.722Z,100642.09
2023-05-12T21:02:36.014Z,100657.31
2023-05-12T21:05:04.578Z,100652.66
2023-05-12T21:07:32.950Z,100656.94
2023-05-12T21:10:01.182Z,100654.50
2023-05-12T21:12:32.694Z,100650.94
2023-05-12T21:15:00.827Z,100659.91
2023-05-12T21:17:35.858Z,100661.75
2023-05-12T21:20:04.318Z,100661.75
2023-05-12T21:22:32.971Z,100654.16
2023-05-12T21:25:01.235Z,100658.09
2023-05-12T21:27:32.068Z,100652.78
2023-05-12T21:30:00.468Z,100658.31
2023-05-12T21:32:29.030Z,100640.87
2023-05-12T21:34:57.545Z,100651.75
2023-05-12T21:37:25.957Z,100658.81
2023-05-12T21:39:54.221Z,100662.25
2023-05-12T21:42:22.989Z,100658.50
2023-05-12T21:44:51.946Z,100658.75
2023-05-12T21:47:19.813Z,100656.50
2023-05-12T21:49:47.933Z,100658.44
2023-05-12T21:52:16.377Z,100654.41
2023-05-12T21:54:44.333Z,100658.84
2023-05-12T21:57:12.528Z,100654.37
2023-05-12T21:59:40.857Z,100657.00
2023-05-12T22:02:09.000Z,100651.81
2023-05-12T22:04:37.464Z,100658.75
2023-05-12T22:07:06.058Z,100666.59
2023-05-12T22:09:34.021Z,100659.84
2023-05-12T22:12:02.297Z,100656.94
2023-05-12T22:14:30.188Z,100663.81
2023-05-12T22:16:58.181Z,100663.59
2023-05-12T22:19:26.572Z,100669.34
2023-05-12T22:21:55.302Z,100668.75
2023-05-12T22:24:23.356Z,100646.75
2023-05-12T22:26:51.676Z,100670.19
2023-05-12T22:29:19.701Z,100664.00
2023-05-12T22:31:47.750Z,100667.75
2023-05-12T22:34:16.175Z,100654.72
2023-05-12T22:36:44.279Z,100666.44
2023-05-12T22:39:14.061Z,100659.53
2023-05-12T22:41:42.361Z,100662.09
2023-05-12T22:44:10.225Z,100659.75
2023-05-12T22:46:38.307Z,100658.84
2023-05-12T22:49:06.591Z,100668.25
2023-05-12T22:51:34.696Z,100669.97
2023-05-12T22:54:02.571Z,100660.59
2023-05-12T22:56:30.754Z,100661.19
2023-05-12T22:58:58.889Z,100665.28
2023-05-12T23:01:26.881Z,100658.28
2023-05-12T23:03:55.304Z,100665.47
2023-05-12T23:06:23.313Z,100650.19
2023-05-12T23:08:51.396Z,100660.69
2023-05-12T23:11:19.856Z,100660.94
2023-05-12T23:13:47.811Z,100657.50
2023-05-12T23:16:16.262Z,100660.59
2023-05-12T23:18:44.751Z,100658.97
2023-05-12T23:21:12.871Z,100670.38
2023-05-12T23:23:40.977Z,100659.03
2023-05-12T23:26:10.185Z,100647.41
2023-05-12T23:28:38.213Z,100656.31
2023-05-12T23:31:06.231Z,100647.72
2023-05-12T23:33:34.737Z,100654.41
2023-05-12T23:36:03.154Z,100647.88
2023-05-12T23:38:31.515Z,100663.00
2023-05-12T23:40:59.912Z,100657.78
2023-05-12T23:43:28.411Z,100658.75
2023-05-12T23:45:56.626Z,100660.22
2023-05-12T23:48:25.094Z,100660.03
2023-05-12T23:50:53.271Z,100652.53
2023-05-12T23:53:21.324Z,100659.94
2023-05-12T23:55:49.740Z,100647.78
2023-05-12T23:58:17.647Z,100638.69
